sensor_id;sensor_type;location;lat;lon;timestamp;pressure;altitude;pressure_sealevel;temperature;humidity
69784;BME280;57054;51.978;4.498;2023-04-27T00:01:41;102148.03;;;5.76;74.39
69784;BME280;57054;51.978;4.498;2023-04-27T00:04:07;102151.50;;;5.73;74.24
69784;BME280;57054;51.978;4.498;2023-04-27T00:06:32;102153.22;;;5.73;74.37
69784;BME280;57054;51.978;4.498;2023-04-27T00:08:58;102153.22;;;5.71;74.51
69784;BME280;57054;51.978;4.498;2023-04-27T00:11:24;102141.94;;;5.69;74.47
69784;BME280;57054;51.978;4.498;2023-04-27T00:13:49;102142.81;;;5.68;74.45
69784;BME280;57054;51.978;4.498;2023-04-27T00:16:15;102143.69;;;5.67;74.57
69784;BME280;57054;51.978;4.498;2023-04-27T00:18:40;102138.50;;;5.66;74.67
69784;BME280;57054;51.978;4.498;2023-04-27T00:21:07;102145.41;;;5.64;74.62
69784;BME280;57054;51.978;4.498;2023-04-27T00:23:33;102146.28;;;5.63;74.11
69784;BME280;57054;51.978;4.498;2023-04-27T00:25:58;102145.44;;;5.61;74.65
69784;BME280;57054;51.978;4.498;2023-04-27T00:28:23;102142.81;;;5.61;74.73
69784;BME280;57054;51.978;4.498;2023-04-27T00:30:49;102140.22;;;5.59;74.70
69784;BME280;57054;51.978;4.498;2023-04-27T00:33:15;102136.75;;;5.58;74.69
69784;BME280;57054;51.978;4.498;2023-04-27T00:35:41;102133.28;;;5.56;74.74
69784;BME280;57054;51.978;4.498;2023-04-27T00:38:06;102139.34;;;5.55;74.78
69784;BME280;57054;51.978;4.498;2023-04-27T00:40:31;102130.69;;;5.53;74.76
69784;BME280;57054;51.978;4.498;2023-04-27T00:42:57;102128.94;;;5.51;74.78
69784;BME280;57054;51.978;4.498;2023-04-27T00:45:22;102127.22;;;5.50;74.74
69784;BME280;57054;51.978;4.498;2023-04-27T00:47:48;102123.75;;;5.48;74.69
69784;BME280;57054;51.978;4.498;2023-04-27T00:50:13;102120.28;;;5.47;74.87
69784;BME280;57054;51.978;4.498;2023-04-27T00:52:39;102122.88;;;5.44;75.00
69784;BME280;57054;51.978;4.498;2023-04-27T00:55:05;102122.88;;;5.43;74.95
69784;BME280;57054;51.978;4.498;2023-04-27T00:57:32;102113.34;;;5.40;75.05
69784;BME280;57054;51.978;4.498;2023-04-27T01:00:00;102122.00;;;5.37;75.03
69784;BME280;57054;51.978;4.498;2023-04-27T01:04:57;102124.59;;;5.34;75.02
69784;BME280;57054;51.978;4.498;2023-04-27T01:07:24;102125.47;;;5.32;75.31
69784;BME280;57054;51.978;4.498;2023-04-27T01:09:51;102133.25;;;5.30;75.29
69784;BME280;57054;51.978;4.498;2023-04-27T01:12:16;102125.44;;;5.27;75.22
69784;BME280;57054;51.978;4.498;2023-04-27T01:14:41;102116.78;;;5.27;75.38
69784;BME280;57054;51.978;4.498;2023-04-27T01:17:07;102119.38;;;5.24;75.43
69784;BME280;57054;51.978;4.498;2023-04-27T01:19:32;102117.66;;;5.21;75.42
69784;BME280;57054;51.978;4.498;2023-04-27T01:21:58;102106.38;;;5.17;75.48
69784;BME280;57054;51.978;4.498;2023-04-27T01:24:24;102105.50;;;5.15;75.56
69784;BME280;57054;51.978;4.498;2023-04-27T01:26:49;102105.50;;;5.15;75.56
69784;BME280;57054;51.978;4.498;2023-04-27T01:29:17;102102.06;;;5.13;75.73
69784;BME280;57054;51.978;4.498;2023-04-27T01:31:42;102099.47;;;5.13;75.53
69784;BME280;57054;51.978;4.498;2023-04-27T01:34:08;102101.19;;;5.10;75.75
69784;BME280;57054;51.978;4.498;2023-04-27T01:36:33;102101.16;;;5.08;75.75
69784;BME280;57054;51.978;4.498;2023-04-27T01:38:59;102092.50;;;5.06;75.84
69784;BME280;57054;51.978;4.498;2023-04-27T01:41:25;102101.16;;;5.05;75.85
69784;BME280;57054;51.978;4.498;2023-04-27T01:43:50;102103.75;;;5.04;75.88
69784;BME280;57054;51.978;4.498;2023-04-27T01:46:16;102098.56;;;5.02;76.10
69784;BME280;57054;51.978;4.498;2023-04-27T01:48:41;102095.97;;;5.00;75.91
69784;BME280;57054;51.978;4.498;2023-04-27T01:51:07;102096.81;;;4.98;75.96
69784;BME280;57054;51.978;4.498;2023-04-27T01:53:32;102093.34;;;4.97;75.86
69784;BME280;57054;51.978;4.498;2023-04-27T01:55:58;102101.13;;;4.96;75.98
69784;BME280;57054;51.978;4.498;2023-04-27T01:58:24;102097.69;;;4.95;76.00
69784;BME280;57054;51.978;4.498;2023-04-27T02:00:49;102102.00;;;4.93;76.11
69784;BME280;57054;51.978;4.498;2023-04-27T02:03:15;102096.81;;;4.92;76.16
69784;BME280;57054;51.978;4.498;2023-04-27T02:05:40;102091.59;;;4.89;76.18
69784;BME280;57054;51.978;4.498;2023-04-27T02:08:06;102093.31;;;4.88;76.67
69784;BME280;57054;51.978;4.498;2023-04-27T02:10:31;102083.78;;;4.87;76.43
69784;BME280;57054;51.978;4.498;2023-04-27T02:12:57;102085.53;;;4.87;76.39
69784;BME280;57054;51.978;4.498;2023-04-27T02:15:22;102083.78;;;4.86;76.35
69784;BME280;57054;51.978;4.498;2023-04-27T02:17:48;102082.06;;;4.86;76.35
69784;BME280;57054;51.978;4.498;2023-04-27T02:20:13;102082.06;;;4.86;76.42
69784;BME280;57054;51.978;4.498;2023-04-27T02:22:43;102079.47;;;4.85;76.44
69784;BME280;57054;51.978;4.498;2023-04-27T02:25:10;102072.53;;;4.84;76.51
69784;BME280;57054;51.978;4.498;2023-04-27T02:27:36;102080.31;;;4.84;76.60
69784;BME280;57054;51.978;4.498;2023-04-27T02:30:06;102079.47;;;4.83;76.63
69784;BME280;57054;51.978;4.498;2023-04-27T02:32:33;102079.47;;;4.83;76.75
69784;BME280;57054;51.978;4.498;2023-04-27T02:34:58;102075.16;;;4.82;76.66
69784;BME280;57054;51.978;4.498;2023-04-27T02:37:24;102074.25;;;4.81;76.79
69784;BME280;57054;51.978;4.498;2023-04-27T02:39:49;102069.94;;;4.80;76.83
69784;BME280;57054;51.978;4.498;2023-04-27T02:42:15;102074.25;;;4.81;76.92
69784;BME280;57054;51.978;4.498;2023-04-27T02:44:40;102072.53;;;4.80;76.92
69784;BME280;57054;51.978;4.498;2023-04-27T02:47:06;102073.41;;;4.79;77.11
69784;BME280;57054;51.978;4.498;2023-04-27T02:49:31;102078.56;;;4.78;77.02
69784;BME280;57054;51.978;4.498;2023-04-27T02:51:57;102082.91;;;4.77;76.99
69784;BME280;57054;51.978;4.498;2023-04-27T02:54:22;102078.56;;;4.76;77.14
69784;BME280;57054;51.978;4.498;2023-04-27T02:56:48;102080.31;;;4.76;77.17
69784;BME280;57054;51.978;4.498;2023-04-27T02:59:13;102079.44;;;4.75;77.31
69784;BME280;57054;51.978;4.498;2023-04-27T03:01:38;102081.16;;;4.76;77.39
69784;BME280;57054;51.978;4.498;2023-04-27T03:04:04;102081.19;;;4.75;77.56
69784;BME280;57054;51.978;4.498;2023-04-27T03:06:29;102088.09;;;4.76;77.63
69784;BME280;57054;51.978;4.498;2023-04-27T03:08:54;102089.84;;;4.75;77.86
69784;BME280;57054;51.978;4.498;2023-04-27T03:11:20;102082.88;;;4.74;78.13
69784;BME280;57054;51.978;4.498;2023-04-27T03:13:45;102077.69;;;4.73;78.21
69784;BME280;57054;51.978;4.498;2023-04-27T03:16:11;102082.03;;;4.72;78.41
69784;BME280;57054;51.978;4.498;2023-04-27T03:18:37;102079.41;;;4.71;78.50
69784;BME280;57054;51.978;4.498;2023-04-27T03:21:09;102084.59;;;4.71;78.67
69784;BME280;57054;51.978;4.498;2023-04-27T03:23:35;102082.91;;;4.71;78.79
69784;BME280;57054;51.978;4.498;2023-04-27T03:26:08;102088.09;;;4.71;78.70
69784;BME280;57054;51.978;4.498;2023-04-27T03:28:34;102088.94;;;4.70;78.88
69784;BME280;57054;51.978;4.498;2023-04-27T03:31:03;102084.59;;;4.71;78.79
69784;BME280;57054;51.978;4.498;2023-04-27T03:33:29;102088.09;;;4.71;78.98
69784;BME280;57054;51.978;4.498;2023-04-27T03:35:55;102088.94;;;4.70;79.10
69784;BME280;57054;51.978;4.498;2023-04-27T03:38:22;102093.28;;;4.70;79.04
69784;BME280;57054;51.978;4.498;2023-04-27T03:40:47;102092.38;;;4.69;79.08
69784;BME280;57054;51.978;4.498;2023-04-27T03:43:12;102088.94;;;4.69;79.23
69784;BME280;57054;51.978;4.498;2023-04-27T03:45:38;102092.41;;;4.68;79.18
69784;BME280;57054;51.978;4.498;2023-04-27T03:48:03;102090.66;;;4.67;79.26
69784;BME280;57054;51.978;4.498;2023-04-27T03:50:29;102093.25;;;4.67;79.27
69784;BME280;57054;51.978;4.498;2023-04-27T03:52:54;102093.25;;;4.65;79.33
69784;BME280;57054;51.978;4.498;2023-04-27T03:55:20;102098.41;;;4.64;79.21
69784;BME280;57054;51.978;4.498;2023-04-27T03:57:45;102099.28;;;4.63;79.34
69784;BME280;57054;51.978;4.498;2023-04-27T04:00:11;102099.28;;;4.63;79.38
69784;BME280;57054;51.978;4.498;2023-04-27T04:02:37;102101.03;;;4.60;79.37
69784;BME280;57054;51.978;4.498;2023-04-27T04:05:03;102110.53;;;4.58;79.44
69784;BME280;57054;51.978;4.498;2023-04-27T04:07:28;102106.19;;;4.56;79.29
69784;BME280;57054;51.978;4.498;2023-04-27T04:09:54;102107.91;;;4.55;79.02
69784;BME280;57054;51.978;4.498;2023-04-27T04:12:19;102109.63;;;4.52;79.18
69784;BME280;57054;51.978;4.498;2023-04-27T04:14:45;102110.47;;;4.51;79.22
69784;BME280;57054;51.978;4.498;2023-04-27T04:17:13;102108.75;;;4.50;79.26
69784;BME280;57054;51.978;4.498;2023-04-27T04:19:38;102106.13;;;4.47;79.16
69784;BME280;57054;51.978;4.498;2023-04-27T04:22:04;102106.13;;;4.45;79.16
69784;BME280;57054;51.978;4.498;2023-04-27T04:24:29;102113.91;;;4.43;78.94
69784;BME280;57054;51.978;4.498;2023-04-27T04:26:55;102110.44;;;4.43;79.02
69784;BME280;57054;51.978;4.498;2023-04-27T04:29:21;102113.88;;;4.42;79.01
69784;BME280;57054;51.978;4.498;2023-04-27T04:31:46;102113.00;;;4.40;78.94
69784;BME280;57054;51.978;4.498;2023-04-27T04:34:12;102111.28;;;4.39;78.89
69784;BME280;57054;51.978;4.498;2023-04-27T04:36:38;102119.06;;;4.37;78.89
69784;BME280;57054;51.978;4.498;2023-04-27T04:39:05;102116.47;;;4.37;79.01
69784;BME280;57054;51.978;4.498;2023-04-27T04:41:31;102118.19;;;4.37;79.02
69784;BME280;57054;51.978;4.498;2023-04-27T04:43:57;102117.31;;;4.36;79.16
69784;BME280;57054;51.978;4.498;2023-04-27T04:46:22;102120.78;;;4.37;79.26
69784;BME280;57054;51.978;4.498;2023-04-27T04:48:49;102127.69;;;4.36;79.22
69784;BME280;57054;51.978;4.498;2023-04-27T04:51:15;102127.69;;;4.36;79.35
69784;BME280;57054;51.978;4.498;2023-04-27T04:53:41;102125.97;;;4.37;79.48
69784;BME280;57054;51.978;4.498;2023-04-27T04:56:10;102124.25;;;4.37;79.65
69784;BME280;57054;51.978;4.498;2023-04-27T04:58:36;102126.84;;;4.39;79.86
69784;BME280;57054;51.978;4.498;2023-04-27T05:01:02;102129.47;;;4.40;80.03
69784;BME280;57054;51.978;4.498;2023-04-27T05:03:27;102131.19;;;4.41;80.09
69784;BME280;57054;51.978;4.498;2023-04-27T05:05:52;102127.75;;;4.42;80.30
69784;BME280;57054;51.978;4.498;2023-04-27T05:08:18;102132.06;;;4.43;80.54
69784;BME280;57054;51.978;4.498;2023-04-27T05:10:50;102136.38;;;4.43;80.68
69784;BME280;57054;51.978;4.498;2023-04-27T05:13:16;102133.81;;;4.45;80.73
69784;BME280;57054;51.978;4.498;2023-04-27T05:15:41;102136.41;;;4.46;80.70
69784;BME280;57054;51.978;4.498;2023-04-27T05:18:07;102139.84;;;4.47;80.84
69784;BME280;57054;51.978;4.498;2023-04-27T05:20:36;102136.41;;;4.48;80.96
69784;BME280;57054;51.978;4.498;2023-04-27T05:23:02;102139.00;;;4.48;81.03
69784;BME280;57054;51.978;4.498;2023-04-27T05:25:32;102142.47;;;4.50;80.98
69784;BME280;57054;51.978;4.498;2023-04-27T05:27:57;102142.47;;;4.50;81.06
69784;BME280;57054;51.978;4.498;2023-04-27T05:30:23;102143.34;;;4.50;80.96
69784;BME280;57054;51.978;4.498;2023-04-27T05:32:49;102145.94;;;4.52;81.28
69784;BME280;57054;51.978;4.498;2023-04-27T05:35:15;102142.50;;;4.51;81.31
69784;BME280;57054;51.978;4.498;2023-04-27T05:37:40;102145.06;;;4.53;81.46
69784;BME280;57054;51.978;4.498;2023-04-27T05:40:06;102152.00;;;4.54;81.55
69784;BME280;57054;51.978;4.498;2023-04-27T05:42:33;102143.38;;;4.55;81.70
69784;BME280;57054;51.978;4.498;2023-04-27T05:44:59;102142.50;;;4.56;81.91
69784;BME280;57054;51.978;4.498;2023-04-27T05:47:24;102145.94;;;4.56;82.01
69784;BME280;57054;51.978;4.498;2023-04-27T05:49:50;102146.84;;;4.57;82.17
69784;BME280;57054;51.978;4.498;2023-04-27T05:52:17;102149.44;;;4.58;82.26
69784;BME280;57054;51.978;4.498;2023-04-27T05:54:46;102152.03;;;4.60;82.34
69784;BME280;57054;51.978;4.498;2023-04-27T05:57:11;102151.19;;;4.63;82.45
69784;BME280;57054;51.978;4.498;2023-04-27T05:59:36;102151.22;;;4.64;82.57
69784;BME280;57054;51.978;4.498;2023-04-27T06:02:02;102157.28;;;4.66;82.73
69784;BME280;57054;51.978;4.498;2023-04-27T06:04:27;102159.88;;;4.68;82.89
69784;BME280;57054;51.978;4.498;2023-04-27T06:06:53;102159.84;;;4.69;83.00
69784;BME280;57054;51.978;4.498;2023-04-27T06:09:19;102164.22;;;4.72;83.28
69784;BME280;57054;51.978;4.498;2023-04-27T06:11:45;102159.91;;;4.74;83.65
69784;BME280;57054;51.978;4.498;2023-04-27T06:14:11;102165.09;;;4.75;83.95
69784;BME280;57054;51.978;4.498;2023-04-27T06:16:37;102161.63;;;4.78;84.11
69784;BME280;57054;51.978;4.498;2023-04-27T06:19:04;102165.13;;;4.78;84.36
69784;BME280;57054;51.978;4.498;2023-04-27T06:21:33;102153.88;;;4.81;84.47
69784;BME280;57054;51.978;4.498;2023-04-27T06:23:59;102147.81;;;4.84;84.78
69784;BME280;57054;51.978;4.498;2023-04-27T06:26:25;102154.75;;;4.86;84.90
69784;BME280;57054;51.978;4.498;2023-04-27T06:28:51;102142.66;;;4.88;84.92
69784;BME280;57054;51.978;4.498;2023-04-27T06:31:16;102149.56;;;4.89;84.96
69784;BME280;57054;51.978;4.498;2023-04-27T06:33:42;102141.78;;;4.92;85.04
69784;BME280;57054;51.978;4.498;2023-04-27T06:36:07;102141.81;;;4.95;85.19
69784;BME280;57054;51.978;4.498;2023-04-27T06:38:33;102137.50;;;4.97;85.40
69784;BME280;57054;51.978;4.498;2023-04-27T06:40:58;102141.81;;;5.02;85.33
69784;BME280;57054;51.978;4.498;2023-04-27T06:43:24;102134.03;;;5.03;85.49
69784;BME280;57054;51.978;4.498;2023-04-27T06:45:49;102140.97;;;5.06;85.71
69784;BME280;57054;51.978;4.498;2023-04-27T06:48:15;102145.31;;;5.08;85.53
69784;BME280;57054;51.978;4.498;2023-04-27T06:50:41;102153.13;;;5.11;85.39
69784;BME280;57054;51.978;4.498;2023-04-27T06:53:07;102153.13;;;5.14;85.35
69784;BME280;57054;51.978;4.498;2023-04-27T06:55:33;102154.88;;;5.18;85.08
69784;BME280;57054;51.978;4.498;2023-04-27T06:57:58;102147.97;;;5.21;84.76
69784;BME280;57054;51.978;4.498;2023-04-27T07:00:23;102154.88;;;5.23;83.86
69784;BME280;57054;51.978;4.498;2023-04-27T07:02:49;102144.50;;;5.26;83.17
69784;BME280;57054;51.978;4.498;2023-04-27T07:05:15;102149.69;;;5.29;83.17
69784;BME280;57054;51.978;4.498;2023-04-27T07:07:40;102146.25;;;5.33;82.20
69784;BME280;57054;51.978;4.498;2023-04-27T07:10:06;102153.16;;;5.36;81.28
69784;BME280;57054;51.978;4.498;2023-04-27T07:12:32;102145.41;;;5.41;80.36
69784;BME280;57054;51.978;4.498;2023-04-27T07:14:57;102148.88;;;5.43;80.33
69784;BME280;57054;51.978;4.498;2023-04-27T07:17:23;102137.59;;;5.47;79.78
69784;BME280;57054;51.978;4.498;2023-04-27T07:19:48;102149.72;;;5.52;79.45
69784;BME280;57054;51.978;4.498;2023-04-27T07:22:14;102141.06;;;5.56;79.58
69784;BME280;57054;51.978;4.498;2023-04-27T07:24:40;102138.50;;;5.63;79.63
69784;BME280;57054;51.978;4.498;2023-04-27T07:27:06;102143.69;;;5.69;79.51
69784;BME280;57054;51.978;4.498;2023-04-27T07:29:32;102147.16;;;5.74;78.89
69784;BME280;57054;51.978;4.498;2023-04-27T07:31:57;102149.75;;;5.80;78.83
69784;BME280;57054;51.978;4.498;2023-04-27T07:34:23;102151.50;;;5.86;79.02
69784;BME280;57054;51.978;4.498;2023-04-27T07:36:48;102151.50;;;5.90;78.66
69784;BME280;57054;51.978;4.498;2023-04-27T07:39:13;102144.59;;;5.95;78.11
69784;BME280;57054;51.978;4.498;2023-04-27T07:41:39;102142.84;;;6.01;77.60
69784;BME280;57054;51.978;4.498;2023-04-27T07:44:05;102153.25;;;6.07;78.33
69784;BME280;57054;51.978;4.498;2023-04-27T07:46:30;102148.91;;;6.12;77.68
69784;BME280;57054;51.978;4.498;2023-04-27T07:48:56;102143.69;;;6.17;77.09
69784;BME280;57054;51.978;4.498;2023-04-27T07:51:24;102143.69;;;6.23;77.17
69784;BME280;57054;51.978;4.498;2023-04-27T07:53:49;102133.25;;;6.29;77.24
69784;BME280;57054;51.978;4.498;2023-04-27T07:56:15;102141.94;;;6.34;76.86
69784;BME280;57054;51.978;4.498;2023-04-27T07:58:41;102147.13;;;6.37;75.68
69784;BME280;57054;51.978;4.498;2023-04-27T08:01:07;102137.59;;;6.41;76.21
69784;BME280;57054;51.978;4.498;2023-04-27T08:03:33;102137.56;;;6.47;76.12
69784;BME280;57054;51.978;4.498;2023-04-27T08:05:58;102135.81;;;6.52;76.54
69784;BME280;57054;51.978;4.498;2023-04-27T08:08:24;102131.47;;;6.57;76.51
69784;BME280;57054;51.978;4.498;2023-04-27T08:10:49;102128.84;;;6.62;75.56
69784;BME280;57054;51.978;4.498;2023-04-27T08:13:15;102124.47;;;6.67;75.57
69784;BME280;57054;51.978;4.498;2023-04-27T08:15:40;102123.59;;;6.71;74.79
69784;BME280;57054;51.978;4.498;2023-04-27T08:18:05;102131.38;;;6.77;75.14
69784;BME280;57054;51.978;4.498;2023-04-27T08:20:31;102125.28;;;6.81;74.94
69784;BME280;57054;51.978;4.498;2023-04-27T08:22:56;102126.13;;;6.88;74.74
69784;BME280;57054;51.978;4.498;2023-04-27T08:25:22;102129.59;;;6.93;74.33
69784;BME280;57054;51.978;4.498;2023-04-27T08:27:47;102131.28;;;6.99;73.64
69784;BME280;57054;51.978;4.498;2023-04-27T08:30:13;102130.41;;;7.06;74.12
69784;BME280;57054;51.978;4.498;2023-04-27T08:32:38;102127.75;;;7.10;73.07
69784;BME280;57054;51.978;4.498;2023-04-27T08:35:04;102132.91;;;7.17;72.58
69784;BME280;57054;51.978;4.498;2023-04-27T08:37:30;102138.09;;;7.23;72.55
69784;BME280;57054;51.978;4.498;2023-04-27T08:39:56;102127.63;;;7.27;72.63
69784;BME280;57054;51.978;4.498;2023-04-27T08:42:21;102136.28;;;7.33;72.75
69784;BME280;57054;51.978;4.498;2023-04-27T08:44:46;102128.47;;;7.37;71.20
69784;BME280;57054;51.978;4.498;2023-04-27T08:47:12;102126.69;;;7.41;70.27
69784;BME280;57054;51.978;4.498;2023-04-27T08:49:37;102122.34;;;7.44;69.29
69784;BME280;57054;51.978;4.498;2023-04-27T08:52:14;102128.34;;;7.53;68.59
69784;BME280;57054;51.978;4.498;2023-04-27T08:54:40;102128.31;;;7.59;68.83
69784;BME280;57054;51.978;4.498;2023-04-27T08:59:35;102122.09;;;7.74;69.05
69784;BME280;57054;51.978;4.498;2023-04-27T09:02:02;102119.44;;;7.80;69.10
69784;BME280;57054;51.978;4.498;2023-04-27T09:04:38;102122.00;;;7.86;68.21
69784;BME280;57054;51.978;4.498;2023-04-27T09:07:12;102116.72;;;7.92;69.47
69784;BME280;57054;51.978;4.498;2023-04-27T09:09:37;102114.94;;;7.97;69.21
69784;BME280;57054;51.978;4.498;2023-04-27T09:12:13;102112.31;;;7.99;67.80
69784;BME280;57054;51.978;4.498;2023-04-27T09:14:39;102120.94;;;8.04;68.05
69784;BME280;57054;51.978;4.498;2023-04-27T09:17:05;102113.94;;;8.09;68.99
69784;BME280;57054;51.978;4.498;2023-04-27T09:19:30;102118.28;;;8.13;67.46
69784;BME280;57054;51.978;4.498;2023-04-27T09:24:28;102111.19;;;8.24;65.82
69784;BME280;57054;51.978;4.498;2023-04-27T09:26:54;102104.13;;;8.34;64.70
69784;BME280;57054;51.978;4.498;2023-04-27T09:29:19;102107.50;;;8.44;64.56
69784;BME280;57054;51.978;4.498;2023-04-27T09:31:45;102114.38;;;8.51;63.88
69784;BME280;57054;51.978;4.498;2023-04-27T09:34:10;102119.59;;;8.53;64.25
69784;BME280;57054;51.978;4.498;2023-04-27T09:36:36;102128.25;;;8.58;65.50
69784;BME280;57054;51.978;4.498;2023-04-27T09:39:02;102115.19;;;8.59;65.09
69784;BME280;57054;51.978;4.498;2023-04-27T09:41:34;102121.22;;;8.63;64.02
69784;BME280;57054;51.978;4.498;2023-04-27T09:43:59;102124.66;;;8.67;64.27
69784;BME280;57054;51.978;4.498;2023-04-27T09:46:27;102122.88;;;8.70;65.42
69784;BME280;57054;51.978;4.498;2023-04-27T09:48:55;102123.72;;;8.74;64.90
69784;BME280;57054;51.978;4.498;2023-04-27T09:51:20;102124.50;;;8.80;65.17
69784;BME280;57054;51.978;4.498;2023-04-27T09:53:57;102114.81;;;8.87;65.00
69784;BME280;57054;51.978;4.498;2023-04-27T09:59:25;102117.25;;;9.02;64.26
69784;BME280;57054;51.978;4.498;2023-04-27T10:01:58;102112.75;;;9.11;62.06
69784;BME280;57054;51.978;4.498;2023-04-27T10:04:35;102121.41;;;9.16;62.43
69784;BME280;57054;51.978;4.498;2023-04-27T10:07:13;102116.97;;;9.22;61.63
69784;BME280;57054;51.978;4.498;2023-04-27T10:09:40;102112.56;;;9.26;61.24
69784;BME280;57054;51.978;4.498;2023-04-27T10:12:26;102105.44;;;9.34;59.33
69784;BME280;57054;51.978;4.498;2023-04-27T10:14:52;102107.06;;;9.41;60.99
69784;BME280;57054;51.978;4.498;2023-04-27T10:17:32;102108.72;;;9.49;60.83
69784;BME280;57054;51.978;4.498;2023-04-27T10:19:59;102101.69;;;9.52;62.21
69784;BME280;57054;51.978;4.498;2023-04-27T10:22:41;102106.78;;;9.60;61.38
69784;BME280;57054;51.978;4.498;2023-04-27T10:25:25;102102.31;;;9.67;61.79
69784;BME280;57054;51.978;4.498;2023-04-27T10:27:54;102103.09;;;9.72;60.14
69784;BME280;57054;51.978;4.498;2023-04-27T10:30:20;102104.81;;;9.74;60.13
69784;BME280;57054;51.978;4.498;2023-04-27T10:32:51;102103.00;;;9.78;61.29
69784;BME280;57054;51.978;4.498;2023-04-27T10:35:18;102102.94;;;9.83;58.71
69784;BME280;57054;51.978;4.498;2023-04-27T10:37:45;102098.47;;;9.88;58.04
69784;BME280;57054;51.978;4.498;2023-04-27T10:40:13;102091.38;;;9.93;56.64
69784;BME280;57054;51.978;4.498;2023-04-27T10:42:44;102090.38;;;10.00;56.85
69784;BME280;57054;51.978;4.498;2023-04-27T10:45:11;102081.56;;;10.06;56.09
69784;BME280;57054;51.978;4.498;2023-04-27T10:47:42;102087.56;;;10.12;56.74
69784;BME280;57054;51.978;4.498;2023-04-27T10:50:10;102087.47;;;10.17;56.14
69784;BME280;57054;51.978;4.498;2023-04-27T10:52:40;102084.75;;;10.22;55.66
69784;BME280;57054;51.978;4.498;2023-04-27T10:55:16;102083.78;;;10.27;56.62
69784;BME280;57054;51.978;4.498;2023-04-27T10:57:50;102081.09;;;10.32;57.86
69784;BME280;57054;51.978;4.498;2023-04-27T11:00:27;102075.75;;;10.38;57.13
69784;BME280;57054;51.978;4.498;2023-04-27T11:02:55;102073.91;;;10.43;55.55
69784;BME280;57054;51.978;4.498;2023-04-27T11:05:26;102073.81;;;10.48;55.09
69784;BME280;57054;51.978;4.498;2023-04-27T11:08:11;102070.16;;;10.55;52.74
69784;BME280;57054;51.978;4.498;2023-04-27T11:10:42;102070.06;;;10.60;54.21
69784;BME280;57054;51.978;4.498;2023-04-27T11:13:10;102068.28;;;10.62;55.49
69784;BME280;57054;51.978;4.498;2023-04-27T11:15:52;102064.75;;;10.64;55.59
69784;BME280;57054;51.978;4.498;2023-04-27T11:18:20;102068.16;;;10.68;56.42
69784;BME280;57054;51.978;4.498;2023-04-27T11:20:48;102054.13;;;10.70;56.26
69784;BME280;57054;51.978;4.498;2023-04-27T11:23:27;102060.94;;;10.78;55.86
69784;BME280;57054;51.978;4.498;2023-04-27T11:25:54;102059.06;;;10.84;54.82
69784;BME280;57054;51.978;4.498;2023-04-27T11:28:21;102055.41;;;10.91;55.94
69784;BME280;57054;51.978;4.498;2023-04-27T11:30:54;102052.66;;;10.96;54.08
69784;BME280;57054;51.978;4.498;2023-04-27T11:33:19;102048.16;;;11.03;53.24
69784;BME280;57054;51.978;4.498;2023-04-27T11:35:46;102047.16;;;11.08;51.65
69784;BME280;57054;51.978;4.498;2023-04-27T11:38:16;102047.03;;;11.13;52.23
69784;BME280;57054;51.978;4.498;2023-04-27T11:40:42;102048.63;;;11.19;49.63
69784;BME280;57054;51.978;4.498;2023-04-27T11:43:11;102052.00;;;11.24;50.63
69784;BME280;57054;51.978;4.498;2023-04-27T11:45:41;102051.94;;;11.27;50.31
69784;BME280;57054;51.978;4.498;2023-04-27T11:48:06;102050.94;;;11.32;53.05
69784;BME280;57054;51.978;4.498;2023-04-27T11:50:37;102044.66;;;11.38;51.41
69784;BME280;57054;51.978;4.498;2023-04-27T11:53:03;102041.94;;;11.43;52.66
69784;BME280;57054;51.978;4.498;2023-04-27T11:55:29;102046.19;;;11.48;52.24
69784;BME280;57054;51.978;4.498;2023-04-27T11:57:56;102041.75;;;11.50;52.00
69784;BME280;57054;51.978;4.498;2023-04-27T12:00:22;102046.03;;;11.53;52.68
69784;BME280;57054;51.978;4.498;2023-04-27T12:02:48;102041.66;;;11.55;52.81
69784;BME280;57054;51.978;4.498;2023-04-27T12:05:13;102036.41;;;11.55;53.76
69784;BME280;57054;51.978;4.498;2023-04-27T12:07:39;102041.75;;;11.50;51.82
69784;BME280;57054;51.978;4.498;2023-04-27T12:10:06;102033.91;;;11.49;52.70
69784;BME280;57054;51.978;4.498;2023-04-27T12:12:32;102036.59;;;11.46;51.58
69784;BME280;57054;51.978;4.498;2023-04-27T12:14:57;102029.69;;;11.43;50.92
69784;BME280;57054;51.978;4.498;2023-04-27T12:17:23;102033.19;;;11.42;50.51
69784;BME280;57054;51.978;4.498;2023-04-27T12:19:48;102027.09;;;11.42;50.78
69784;BME280;57054;51.978;4.498;2023-04-27T12:22:13;102031.34;;;11.46;51.08
69784;BME280;57054;51.978;4.498;2023-04-27T12:24:39;102032.22;;;11.48;51.92
69784;BME280;57054;51.978;4.498;2023-04-27T12:27:05;102029.53;;;11.49;51.53
69784;BME280;57054;51.978;4.498;2023-04-27T12:29:31;102023.38;;;11.50;51.10
69784;BME280;57054;51.978;4.498;2023-04-27T12:31:59;102020.69;;;11.53;50.90
69784;BME280;57054;51.978;4.498;2023-04-27T12:34:25;102017.13;;;11.56;52.82
69784;BME280;57054;51.978;4.498;2023-04-27T12:36:51;102014.41;;;11.59;50.59
69784;BME280;57054;51.978;4.498;2023-04-27T12:39:21;102010.88;;;11.60;49.92
69784;BME280;57054;51.978;4.498;2023-04-27T12:41:48;102005.59;;;11.62;51.40
69784;BME280;57054;51.978;4.498;2023-04-27T12:44:15;102015.16;;;11.64;48.23
69784;BME280;57054;51.978;4.498;2023-04-27T12:46:42;102004.59;;;11.66;48.97
69784;BME280;57054;51.978;4.498;2023-04-27T12:49:09;102000.19;;;11.68;49.89
69784;BME280;57054;51.978;4.498;2023-04-27T12:51:35;101999.25;;;11.70;49.82
69784;BME280;57054;51.978;4.498;2023-04-27T12:54:05;102004.41;;;11.74;50.55
69784;BME280;57054;51.978;4.498;2023-04-27T12:56:31;102000.84;;;11.76;51.28
69784;BME280;57054;51.978;4.498;2023-04-27T12:58:56;102000.81;;;11.78;48.86
69784;BME280;57054;51.978;4.498;2023-04-27T13:01:22;102002.50;;;11.79;50.22
69784;BME280;57054;51.978;4.498;2023-04-27T13:03:52;102000.75;;;11.79;50.98
69784;BME280;57054;51.978;4.498;2023-04-27T13:06:18;101997.19;;;11.82;51.12